Time;durP1;ratioP1;P1;durP2;ratioP2;P2;SDS_P1;SDS_P2;PMS_P1;PMS_P2;Temp;Humidity;BMP_temperature;BMP_pressure;BME280_temperature;BME280_humidity;BME280_pressure;Samples;Min_cycle;Max_cycle;Signal;HPM_P1;HPM_P2
2023/08/15 00:01:24;;;;;;;;;;;17.20;99.90;;;;;;4989775;28;19929;-63
2023/08/15 00:03:50;;;;;;;;;;;17.20;99.90;;;;;;4989332;28;20017;-63
2023/08/15 00:06:20;;;;;;;;;;;17.10;99.90;;;;;;4988835;28;20032;-63
2023/08/15 00:08:53;;;;;;;;;;;17.10;99.90;;;;;;4988958;28;19995;-64
2023/08/15 00:11:23;;;;;;;;;;;17.10;99.90;;;;;;4988785;28;19922;-63
2023/08/15 00:13:49;;;;;;;;;;;17.10;99.90;;;;;;4989334;28;19921;-64
2023/08/15 00:16:16;;;;;;;;;;;17.10;99.90;;;;;;4988658;28;19922;-63
2023/08/15 00:18:43;;;;;;;;;;;17.00;99.90;;;;;;4988542;28;19933;-63
2023/08/15 00:21:10;;;;;;;;;;;17.00;99.90;;;;;;4988389;28;19965;-63
2023/08/15 00:23:36;;;;;;;;;;;17.00;99.90;;;;;;4989194;28;19953;-64
2023/08/15 00:26:03;;;;;;;;;;;17.00;99.90;;;;;;4988603;28;19929;-64
2023/08/15 00:28:30;;;;;;;;;;;16.90;99.90;;;;;;4988943;28;19921;-64
2023/08/15 00:30:56;;;;;;;;;;;16.90;99.90;;;;;;4988206;28;19987;-63
2023/08/15 00:33:23;;;;;;;;;;;16.80;99.90;;;;;;4987304;28;19925;-64
2023/08/15 00:35:50;;;;;;;;;;;16.70;99.90;;;;;;4988645;28;19921;-63
2023/08/15 00:38:16;;;;;;;;;;;16.70;99.90;;;;;;4988281;28;19921;-64
2023/08/15 00:40:43;;;;;;;;;;;16.70;99.90;;;;;;4989072;28;19964;-63
2023/08/15 00:43:10;;;;;;;;;;;16.70;99.90;;;;;;4986973;28;19922;-64
2023/08/15 00:45:38;;;;;;;;;;;16.70;99.90;;;;;;4644514;28;10000477;-63
2023/08/15 00:48:05;;;;;;;;;;;16.60;99.90;;;;;;4988846;28;19988;-64
2023/08/15 00:50:32;;;;;;;;;;;16.60;99.90;;;;;;4991731;28;19925;-63
2023/08/15 00:52:59;;;;;;;;;;;16.60;99.90;;;;;;4990984;28;19922;-63
2023/08/15 00:55:26;;;;;;;;;;;16.60;99.90;;;;;;4991509;28;19929;-63
2023/08/15 00:57:52;;;;;;;;;;;16.60;99.90;;;;;;4990846;28;20001;-64
2023/08/15 01:00:19;;;;;;;;;;;16.60;99.90;;;;;;4992457;28;20627;-64
2023/08/15 01:02:46;;;;;;;;;;;16.60;99.90;;;;;;4990836;28;19938;-64
2023/08/15 01:05:14;;;;;;;;;;;16.60;99.90;;;;;;4994718;28;20020;-64
2023/08/15 01:07:41;;;;;;;;;;;16.50;99.90;;;;;;5006901;28;19925;-64
2023/08/15 01:10:08;;;;;;;;;;;16.50;99.90;;;;;;4991153;28;19968;-63
2023/08/15 01:12:41;;;;;;;;;;;16.40;99.90;;;;;;4992246;28;19976;-63
2023/08/15 01:15:09;;;;;;;;;;;16.30;99.90;;;;;;4990990;28;20369;-63
2023/08/15 01:17:38;;;;;;;;;;;16.30;99.90;;;;;;4992033;28;19969;-64
2023/08/15 01:20:09;;;;;;;;;;;16.30;99.90;;;;;;4990871;28;19977;-64
2023/08/15 01:22:36;;;;;;;;;;;16.20;99.90;;;;;;4991894;28;20381;-64
2023/08/15 01:25:03;;;;;;;;;;;16.10;99.90;;;;;;4991781;28;20305;-64
2023/08/15 01:27:30;;;;;;;;;;;16.00;99.90;;;;;;4992262;28;19933;-63
2023/08/15 01:29:56;;;;;;;;;;;15.90;99.90;;;;;;4991964;28;19921;-64
2023/08/15 01:32:26;;;;;;;;;;;16.00;99.90;;;;;;4991615;28;20376;-64
2023/08/15 01:34:56;;;;;;;;;;;15.90;99.90;;;;;;4990908;28;19957;-63
2023/08/15 01:37:24;;;;;;;;;;;15.80;99.90;;;;;;4991440;28;20356;-62
2023/08/15 01:39:51;;;;;;;;;;;15.70;99.90;;;;;;4992328;28;19921;-63
2023/08/15 01:42:18;;;;;;;;;;;15.70;99.90;;;;;;4994526;28;20297;-63
2023/08/15 01:44:44;;;;;;;;;;;15.70;99.90;;;;;;4981592;28;19922;-63
2023/08/15 01:47:11;;;;;;;;;;;15.70;99.90;;;;;;4988703;28;19922;-63
2023/08/15 01:49:38;;;;;;;;;;;15.70;99.90;;;;;;4989658;28;19922;-64
2023/08/15 01:52:04;;;;;;;;;;;15.60;99.90;;;;;;4992124;28;19922;-63
2023/08/15 01:54:31;;;;;;;;;;;15.60;99.90;;;;;;4989756;28;20013;-63
2023/08/15 01:56:58;;;;;;;;;;;15.60;99.90;;;;;;4991323;28;19964;-63
2023/08/15 01:59:24;;;;;;;;;;;15.60;99.90;;;;;;4991145;28;19991;-63
2023/08/15 02:01:51;;;;;;;;;;;15.60;99.90;;;;;;4991296;28;19953;-63
2023/08/15 02:04:18;;;;;;;;;;;15.70;99.90;;;;;;4990798;28;19925;-63
2023/08/15 02:06:44;;;;;;;;;;;15.70;99.90;;;;;;4988998;28;19968;-64
2023/08/15 02:09:11;;;;;;;;;;;15.70;99.90;;;;;;4990535;28;20431;-63
2023/08/15 02:11:38;;;;;;;;;;;15.70;99.90;;;;;;4991647;28;20454;-62
2023/08/15 02:14:04;;;;;;;;;;;15.60;99.90;;;;;;4987032;28;19953;-63
2023/08/15 02:16:31;;;;;;;;;;;15.50;99.90;;;;;;4990806;28;19987;-65
2023/08/15 02:18:58;;;;;;;;;;;15.50;99.90;;;;;;4990663;28;19922;-63
2023/08/15 02:21:25;;;;;;;;;;;15.50;99.90;;;;;;4990624;28;20399;-63
2023/08/15 02:23:51;;;;;;;;;;;15.40;99.90;;;;;;4971592;28;19981;-63
2023/08/15 02:26:18;;;;;;;;;;;15.40;99.90;;;;;;4989438;28;19922;-63
2023/08/15 02:28:45;;;;;;;;;;;15.40;99.90;;;;;;4990683;28;19960;-63
2023/08/15 02:31:11;;;;;;;;;;;15.40;99.90;;;;;;4990592;28;19976;-63
2023/08/15 02:33:38;;;;;;;;;;;15.40;99.90;;;;;;4990958;28;19969;-63
2023/08/15 02:36:05;;;;;;;;;;;15.40;99.90;;;;;;4989965;28;20000;-63
2023/08/15 02:38:33;;;;;;;;;;;15.40;99.90;;;;;;4990752;28;19925;-63
2023/08/15 02:40:59;;;;;;;;;;;15.30;99.90;;;;;;4988820;28;19922;-63
2023/08/15 02:43:26;;;;;;;;;;;15.30;99.90;;;;;;4990717;28;19973;-62
2023/08/15 02:45:53;;;;;;;;;;;15.30;99.90;;;;;;4989967;28;19969;-62
2023/08/15 02:48:19;;;;;;;;;;;15.30;99.90;;;;;;4990267;28;19971;-62
2023/08/15 02:50:46;;;;;;;;;;;15.30;99.90;;;;;;4990272;28;19973;-62
2023/08/15 02:53:12;;;;;;;;;;;15.30;99.90;;;;;;4988267;28;19957;-62
2023/08/15 02:55:39;;;;;;;;;;;15.30;99.90;;;;;;4988770;28;19969;-63
2023/08/15 02:58:06;;;;;;;;;;;15.30;99.90;;;;;;4989826;28;19973;-62
2023/08/15 03:00:36;;;;;;;;;;;15.20;99.90;;;;;;4989704;28;19926;-62
2023/08/15 03:03:03;;;;;;;;;;;15.30;99.90;;;;;;4989703;28;19929;-62
2023/08/15 03:05:30;;;;;;;;;;;15.20;99.90;;;;;;4989919;28;19928;-63
2023/08/15 03:07:56;;;;;;;;;;;15.10;99.90;;;;;;4988055;28;19964;-63
2023/08/15 03:10:23;;;;;;;;;;;15.10;99.90;;;;;;4988788;28;19930;-62
2023/08/15 03:12:50;;;;;;;;;;;15.10;99.90;;;;;;4989672;28;19968;-63
2023/08/15 03:15:16;;;;;;;;;;;15.10;99.90;;;;;;4990096;28;19952;-63
2023/08/15 03:17:43;;;;;;;;;;;15.10;99.90;;;;;;4989060;28;20033;-63
2023/08/15 03:20:10;;;;;;;;;;;15.00;99.90;;;;;;4989661;28;20536;-63
2023/08/15 03:22:37;;;;;;;;;;;15.00;99.90;;;;;;4989649;28;19956;-63
2023/08/15 03:25:04;;;;;;;;;;;15.00;99.90;;;;;;4989687;28;19988;-66
2023/08/15 03:27:30;;;;;;;;;;;14.90;99.90;;;;;;4990031;28;19928;-63
2023/08/15 03:29:57;;;;;;;;;;;14.90;99.90;;;;;;4988851;28;19929;-63
2023/08/15 03:32:24;;;;;;;;;;;14.80;99.90;;;;;;4987369;28;20210;-63
2023/08/15 03:34:51;;;;;;;;;;;14.80;99.90;;;;;;4989188;28;19921;-62
2023/08/15 03:37:18;;;;;;;;;;;14.80;99.90;;;;;;4988391;28;19928;-63
2023/08/15 03:39:45;;;;;;;;;;;14.80;99.90;;;;;;4987259;28;19983;-63
2023/08/15 03:42:12;;;;;;;;;;;14.80;99.90;;;;;;4989499;28;19926;-63
2023/08/15 03:44:38;;;;;;;;;;;14.80;99.90;;;;;;4989204;28;19922;-64
2023/08/15 03:47:05;;;;;;;;;;;14.80;99.90;;;;;;4982204;28;20377;-63
2023/08/15 03:49:32;;;;;;;;;;;14.80;99.90;;;;;;4987000;28;19980;-64
2023/08/15 03:51:58;;;;;;;;;;;14.80;99.90;;;;;;4988679;28;19980;-64
2023/08/15 03:54:25;;;;;;;;;;;14.70;99.90;;;;;;4986277;28;20377;-64
2023/08/15 03:56:52;;;;;;;;;;;14.70;99.90;;;;;;4989376;28;19968;-63
2023/08/15 03:59:18;;;;;;;;;;;14.70;99.90;;;;;;4988364;28;19929;-64
2023/08/15 04:01:45;;;;;;;;;;;14.60;99.90;;;;;;4989088;28;19926;-64
2023/08/15 04:04:12;;;;;;;;;;;14.60;99.90;;;;;;4988618;28;19972;-65
2023/08/15 04:06:39;;;;;;;;;;;14.60;99.90;;;;;;4969489;28;19941;-64
2023/08/15 04:09:06;;;;;;;;;;;14.50;99.90;;;;;;4982192;28;19921;-64
2023/08/15 04:11:32;;;;;;;;;;;14.60;99.90;;;;;;4989952;28;20371;-64
2023/08/15 04:13:59;;;;;;;;;;;14.50;99.90;;;;;;4990522;28;20405;-66
2023/08/15 04:16:26;;;;;;;;;;;14.50;99.90;;;;;;4987422;28;20190;-63
2023/08/15 04:18:52;;;;;;;;;;;14.50;99.90;;;;;;4988274;28;19922;-64
2023/08/15 04:21:19;;;;;;;;;;;14.50;99.90;;;;;;4989055;28;20016;-64
2023/08/15 04:23:46;;;;;;;;;;;14.50;99.90;;;;;;4988697;28;19921;-64
2023/08/15 04:26:13;;;;;;;;;;;14.50;99.90;;;;;;4988909;28;20417;-64
2023/08/15 04:28:39;;;;;;;;;;;14.50;99.90;;;;;;4988640;28;19921;-64
2023/08/15 04:31:06;;;;;;;;;;;14.50;99.90;;;;;;4988729;28;19944;-64
2023/08/15 04:33:33;;;;;;;;;;;14.50;99.90;;;;;;4988831;28;20319;-64
2023/08/15 04:35:59;;;;;;;;;;;14.50;99.90;;;;;;4988247;28;20324;-64
2023/08/15 04:38:27;;;;;;;;;;;14.50;99.90;;;;;;4989009;28;20166;-63
2023/08/15 04:40:53;;;;;;;;;;;14.50;99.90;;;;;;4987735;28;19928;-63
2023/08/15 04:43:24;;;;;;;;;;;14.50;99.90;;;;;;4987586;28;19926;-64
2023/08/15 04:45:51;;;;;;;;;;;14.50;99.90;;;;;;4989587;28;19984;-63
2023/08/15 04:48:18;;;;;;;;;;;14.40;99.90;;;;;;4988587;28;19955;-64
2023/08/15 04:50:44;;;;;;;;;;;14.40;99.90;;;;;;4988468;28;20365;-63
2023/08/15 04:53:11;;;;;;;;;;;14.40;99.90;;;;;;4987700;28;19926;-64
2023/08/15 04:55:38;;;;;;;;;;;14.30;99.90;;;;;;4988148;28;19922;-63
2023/08/15 04:58:04;;;;;;;;;;;14.30;99.90;;;;;;4988121;28;19957;-63
2023/08/15 05:00:31;;;;;;;;;;;14.20;99.90;;;;;;4987830;28;19922;-63
2023/08/15 05:03:01;;;;;;;;;;;14.20;99.90;;;;;;4986959;28;19932;-64
2023/08/15 05:05:28;;;;;;;;;;;14.20;99.90;;;;;;4990153;28;20340;-63
2023/08/15 05:07:54;;;;;;;;;;;14.20;99.90;;;;;;4988312;28;19937;-63
2023/08/15 05:10:22;;;;;;;;;;;14.20;99.90;;;;;;4988069;28;19925;-63
2023/08/15 05:12:48;;;;;;;;;;;14.20;99.90;;;;;;4988887;28;20369;-64
2023/08/15 05:15:15;;;;;;;;;;;14.10;99.90;;;;;;4989569;28;19922;-63
2023/08/15 05:17:43;;;;;;;;;;;14.10;99.90;;;;;;4987986;28;19926;-64
2023/08/15 05:20:11;;;;;;;;;;;14.10;99.90;;;;;;4988053;28;20008;-64
2023/08/15 05:22:38;;;;;;;;;;;14.10;99.90;;;;;;4988149;28;19945;-63
2023/08/15 05:25:05;;;;;;;;;;;14.10;99.90;;;;;;4988482;28;19922;-63
2023/08/15 05:27:32;;;;;;;;;;;14.20;99.90;;;;;;4988206;28;19980;-63
2023/08/15 05:29:58;;;;;;;;;;;14.20;99.90;;;;;;4987941;28;19922;-63
2023/08/15 05:32:25;;;;;;;;;;;14.20;99.90;;;;;;4990169;28;19980;-64
2023/08/15 05:34:52;;;;;;;;;;;14.30;99.90;;;;;;4991867;28;19944;-64
2023/08/15 05:37:18;;;;;;;;;;;14.40;99.90;;;;;;4990197;28;19957;-64
2023/08/15 05:39:46;;;;;;;;;;;14.40;99.90;;;;;;4991667;28;20300;-63
2023/08/15 05:42:17;;;;;;;;;;;14.50;99.90;;;;;;4991267;28;20542;-63
2023/08/15 05:44:45;;;;;;;;;;;14.50;99.90;;;;;;4991655;28;19921;-64
2023/08/15 05:47:12;;;;;;;;;;;14.50;99.90;;;;;;4991014;28;19921;-63
2023/08/15 05:49:40;;;;;;;;;;;14.50;99.90;;;;;;4991283;28;19945;-62
2023/08/15 05:52:06;;;;;;;;;;;14.50;99.90;;;;;;4968960;28;19973;-63
2023/08/15 05:54:33;;;;;;;;;;;14.60;99.90;;;;;;4972645;28;19953;-63
2023/08/15 05:57:00;;;;;;;;;;;14.50;99.90;;;;;;4986198;28;19977;-63
2023/08/15 05:59:26;;;;;;;;;;;14.70;99.90;;;;;;4990174;28;19925;-63
2023/08/15 06:01:53;;;;;;;;;;;14.80;99.90;;;;;;4989122;28;20389;-63
2023/08/15 06:04:20;;;;;;;;;;;14.80;99.90;;;;;;4985916;28;19922;-62
2023/08/15 06:06:47;;;;;;;;;;;14.80;99.90;;;;;;4987372;28;19925;-62
2023/08/15 06:09:13;;;;;;;;;;;14.90;99.90;;;;;;4990609;28;19979;-63
2023/08/15 06:11:43;;;;;;;;;;;14.90;99.90;;;;;;4989390;28;19929;-63
2023/08/15 06:14:10;;;;;;;;;;;15.00;99.90;;;;;;4990598;28;19922;-63
2023/08/15 06:16:37;;;;;;;;;;;15.10;99.90;;;;;;4990800;28;19929;-63
2023/08/15 06:19:04;;;;;;;;;;;15.10;99.90;;;;;;4990228;28;19936;-64
2023/08/15 06:21:30;;;;;;;;;;;15.10;99.90;;;;;;4991205;28;19921;-63
2023/08/15 06:23:57;;;;;;;;;;;15.20;99.90;;;;;;4990808;28;19928;-65
2023/08/15 06:26:24;;;;;;;;;;;15.20;99.90;;;;;;4990717;28;20393;-63
2023/08/15 06:28:51;;;;;;;;;;;15.30;99.90;;;;;;4990089;28;19929;-63
2023/08/15 06:31:17;;;;;;;;;;;15.40;99.90;;;;;;4990605;28;20400;-62
2023/08/15 06:33:44;;;;;;;;;;;15.40;99.90;;;;;;4988669;28;20396;-65
2023/08/15 06:36:11;;;;;;;;;;;15.40;99.90;;;;;;4993890;28;19965;-64
2023/08/15 06:38:38;;;;;;;;;;;15.40;99.90;;;;;;4990011;28;19922;-63
2023/08/15 06:41:05;;;;;;;;;;;15.50;99.90;;;;;;4990675;28;19984;-64
2023/08/15 06:43:32;;;;;;;;;;;15.50;99.90;;;;;;4989380;28;20381;-63
2023/08/15 06:45:59;;;;;;;;;;;15.50;99.90;;;;;;4991510;28;19921;-62
2023/08/15 06:48:26;;;;;;;;;;;15.60;99.90;;;;;;4990101;28;19932;-63
2023/08/15 06:50:53;;;;;;;;;;;15.70;99.90;;;;;;4990834;28;19941;-63
2023/08/15 06:53:20;;;;;;;;;;;15.70;99.90;;;;;;4989301;28;19961;-63
2023/08/15 06:55:49;;;;;;;;;;;15.80;99.90;;;;;;4989921;28;19961;-63
2023/08/15 06:58:17;;;;;;;;;;;15.90;99.90;;;;;;4989450;28;19929;-63
2023/08/15 07:00:44;;;;;;;;;;;15.90;99.90;;;;;;4988999;28;19921;-62
2023/08/15 07:03:12;;;;;;;;;;;16.00;99.90;;;;;;4990697;28;19968;-62
2023/08/15 07:05:39;;;;;;;;;;;16.00;99.90;;;;;;4991342;28;20309;-62
2023/08/15 07:08:06;;;;;;;;;;;16.10;99.90;;;;;;4989655;28;19922;-62
2023/08/15 07:10:33;;;;;;;;;;;16.20;99.90;;;;;;4989682;28;20021;-62
2023/08/15 07:13:00;;;;;;;;;;;16.20;99.90;;;;;;4989814;28;19965;-62
2023/08/15 07:15:27;;;;;;;;;;;16.30;99.90;;;;;;4989283;28;19976;-62
2023/08/15 07:17:54;;;;;;;;;;;16.30;99.90;;;;;;4989327;28;20440;-61
2023/08/15 07:20:20;;;;;;;;;;;16.40;99.90;;;;;;4988941;28;19929;-61
2023/08/15 07:22:47;;;;;;;;;;;16.40;99.90;;;;;;4988304;28;20389;-62
2023/08/15 07:25:14;;;;;;;;;;;16.40;99.90;;;;;;4989026;28;19972;-61
2023/08/15 07:27:41;;;;;;;;;;;16.50;99.90;;;;;;4988885;28;19922;-61
2023/08/15 07:30:08;;;;;;;;;;;16.60;99.90;;;;;;4989146;28;19922;-61
2023/08/15 07:32:35;;;;;;;;;;;16.70;99.90;;;;;;4989456;28;19930;-61
2023/08/15 07:35:05;;;;;;;;;;;16.70;99.90;;;;;;4986705;28;19972;-61
2023/08/15 07:37:32;;;;;;;;;;;16.70;99.90;;;;;;4988855;28;19968;-67
2023/08/15 07:40:07;;;;;;;;;;;16.80;99.90;;;;;;4641661;28;10000062;-62
2023/08/15 07:42:34;;;;;;;;;;;16.90;99.90;;;;;;4986223;28;19988;-62
2023/08/15 07:45:02;;;;;;;;;;;17.00;99.90;;;;;;4985978;28;19980;-61
2023/08/15 07:47:33;;;;;;;;;;;17.00;99.90;;;;;;4986199;28;19929;-62
2023/08/15 07:50:13;;;;;;;;;;;17.10;99.90;;;;;;4985985;28;20427;-62
2023/08/15 07:52:40;;;;;;;;;;;17.10;99.90;;;;;;4994822;28;19925;-62
2023/08/15 07:55:07;;;;;;;;;;;17.10;99.90;;;;;;5001762;28;20411;-62
2023/08/15 07:57:34;;;;;;;;;;;17.20;99.90;;;;;;4985738;28;20293;-63
2023/08/15 08:00:01;;;;;;;;;;;17.20;99.90;;;;;;4978837;28;19929;-62
2023/08/15 08:02:27;;;;;;;;;;;17.30;99.90;;;;;;4969522;28;20015;-64
2023/08/15 08:04:54;;;;;;;;;;;17.30;99.90;;;;;;4994259;28;19926;-62
2023/08/15 08:07:21;;;;;;;;;;;17.40;99.90;;;;;;4989320;28;19926;-61
2023/08/15 08:09:48;;;;;;;;;;;17.40;99.90;;;;;;4985918;28;20031;-61
2023/08/15 08:12:14;;;;;;;;;;;17.40;99.90;;;;;;4985590;28;19926;-61
2023/08/15 08:14:41;;;;;;;;;;;17.50;99.90;;;;;;4985363;28;19969;-62
2023/08/15 08:17:22;;;;;;;;;;;17.50;99.90;;;;;;4985394;28;19960;-61
2023/08/15 08:19:49;;;;;;;;;;;17.60;99.90;;;;;;4985250;28;19925;-61
2023/08/15 08:22:15;;;;;;;;;;;17.60;99.90;;;;;;4985685;28;19985;-63
2023/08/15 08:24:42;;;;;;;;;;;17.60;99.90;;;;;;4987060;28;20464;-63
2023/08/15 08:27:09;;;;;;;;;;;17.70;99.90;;;;;;4985088;28;19930;-63
2023/08/15 08:29:35;;;;;;;;;;;17.70;99.90;;;;;;4985530;28;19925;-62
2023/08/15 08:32:02;;;;;;;;;;;17.80;99.90;;;;;;4985201;28;19981;-63
2023/08/15 08:34:29;;;;;;;;;;;17.90;99.90;;;;;;4985669;28;19948;-62
2023/08/15 08:36:55;;;;;;;;;;;17.90;99.90;;;;;;4985357;28;20045;-62
2023/08/15 08:39:22;;;;;;;;;;;17.90;99.90;;;;;;4984807;28;19965;-63
2023/08/15 08:41:58;;;;;;;;;;;18.00;99.90;;;;;;4985151;28;19932;-63
2023/08/15 08:44:25;;;;;;;;;;;18.10;99.90;;;;;;4986867;28;19925;-62
2023/08/15 08:46:51;;;;;;;;;;;18.20;99.90;;;;;;4985364;28;20342;-62
2023/08/15 08:49:18;;;;;;;;;;;18.30;99.90;;;;;;4984211;28;19980;-62
2023/08/15 08:51:47;;;;;;;;;;;18.30;99.90;;;;;;4986880;28;20440;-63
2023/08/15 08:54:14;;;;;;;;;;;18.40;99.90;;;;;;4984508;28;19984;-62
2023/08/15 08:56:44;;;;;;;;;;;18.40;99.90;;;;;;4988575;28;19922;-63
2023/08/15 08:59:11;;;;;;;;;;;18.50;99.90;;;;;;5002604;28;19922;-62
2023/08/15 09:01:39;;;;;;;;;;;18.60;99.90;;;;;;4990612;28;19926;-63
2023/08/15 09:04:06;;;;;;;;;;;18.60;99.90;;;;;;4990004;28;19928;-62
2023/08/15 09:06:32;;;;;;;;;;;18.60;99.90;;;;;;4982878;28;19922;-62
2023/08/15 09:08:59;;;;;;;;;;;18.70;99.90;;;;;;4991811;28;19922;-63
2023/08/15 09:11:32;;;;;;;;;;;18.80;99.90;;;;;;4991154;28;19922;-62
2023/08/15 09:14:01;;;;;;;;;;;18.90;99.90;;;;;;4991806;28;19925;-62
2023/08/15 09:16:27;;;;;;;;;;;19.00;99.90;;;;;;4992431;28;19926;-61
2023/08/15 09:18:54;;;;;;;;;;;19.10;99.90;;;;;;4991785;28;20173;-62
2023/08/15 09:21:23;;;;;;;;;;;19.20;99.90;;;;;;4993120;28;20451;-63
2023/08/15 09:23:51;;;;;;;;;;;19.20;99.90;;;;;;4993182;28;19921;-62
2023/08/15 09:26:17;;;;;;;;;;;19.20;99.90;;;;;;5003972;28;20381;-62
2023/08/15 09:28:44;;;;;;;;;;;19.30;99.90;;;;;;4994691;28;19969;-63
2023/08/15 09:31:11;;;;;;;;;;;19.30;99.90;;;;;;4990365;28;20369;-63
2023/08/15 09:33:38;;;;;;;;;;;19.30;99.90;;;;;;4991171;28;19979;-60
2023/08/15 09:36:05;;;;;;;;;;;19.40;99.90;;;;;;4989464;28;19929;-60
2023/08/15 09:38:32;;;;;;;;;;;19.50;99.90;;;;;;5007391;28;20024;-61
2023/08/15 09:40:59;;;;;;;;;;;19.60;99.90;;;;;;4987413;28;19922;-61
2023/08/15 09:43:26;;;;;;;;;;;19.60;99.90;;;;;;4999222;28;20041;-60
2023/08/15 09:45:53;;;;;;;;;;;19.70;99.90;;;;;;4992355;28;19922;-60
2023/08/15 09:48:20;;;;;;;;;;;19.90;99.90;;;;;;4986712;28;19932;-60
2023/08/15 09:50:47;;;;;;;;;;;20.00;99.90;;;;;;4987979;28;19929;-60
2023/08/15 09:53:14;;;;;;;;;;;20.20;99.90;;;;;;4988044;28;20514;-60
2023/08/15 09:55:41;;;;;;;;;;;20.50;99.90;;;;;;4991346;28;19925;-61
2023/08/15 09:58:08;;;;;;;;;;;20.90;99.90;;;;;;4987652;28;19926;-61
2023/08/15 10:00:35;;;;;;;;;;;21.30;99.90;;;;;;4986134;28;20381;-61
2023/08/15 10:03:21;;;;;;;;;;;21.40;99.90;;;;;;4987739;28;19999;-62
2023/08/15 10:05:51;;;;;;;;;;;21.60;99.90;;;;;;4965619;28;19926;-61
2023/08/15 10:08:18;;;;;;;;;;;21.70;99.90;;;;;;4990375;28;19925;-60
2023/08/15 10:10:47;;;;;;;;;;;21.50;99.90;;;;;;4997102;28;20300;-60
2023/08/15 10:13:14;;;;;;;;;;;21.90;99.90;;;;;;4995327;28;19926;-61
2023/08/15 10:15:41;;;;;;;;;;;22.30;99.90;;;;;;4993172;28;19934;-60
2023/08/15 10:18:07;;;;;;;;;;;22.40;99.90;;;;;;4985274;28;19929;-60
2023/08/15 10:20:37;;;;;;;;;;;22.10;99.90;;;;;;4984267;28;19930;-59
2023/08/15 10:23:07;;;;;;;;;;;22.00;99.90;;;;;;4985852;28;19949;-60
2023/08/15 10:25:40;;;;;;;;;;;22.00;99.90;;;;;;4986155;28;20497;-60
2023/08/15 10:28:11;;;;;;;;;;;22.20;99.90;;;;;;4990816;28;20021;-60
2023/08/15 10:30:47;;;;;;;;;;;22.40;99.90;;;;;;5003028;28;20479;-60
2023/08/15 10:33:19;;;;;;;;;;;22.40;99.90;;;;;;4979228;28;19922;-61
2023/08/15 10:35:50;;;;;;;;;;;22.30;99.90;;;;;;4966512;28;20072;-60
2023/08/15 10:38:26;;;;;;;;;;;22.20;99.90;;;;;;4975665;28;19934;-62
2023/08/15 10:40:53;;;;;;;;;;;21.90;99.90;;;;;;4986047;28;19948;-62
2023/08/15 10:43:24;;;;;;;;;;;21.70;99.90;;;;;;4995603;28;19925;-60
2023/08/15 10:45:52;;;;;;;;;;;21.50;99.90;;;;;;5008661;28;19932;-62
2023/08/15 10:48:35;;;;;;;;;;;21.30;99.90;;;;;;4995444;28;20424;-61
2023/08/15 10:51:27;;;;;;;;;;;21.10;99.90;;;;;;5003218;28;20059;-62
2023/08/15 10:53:54;;;;;;;;;;;21.00;99.90;;;;;;5001640;28;19925;-62
2023/08/15 10:56:22;;;;;;;;;;;21.00;99.90;;;;;;5003981;28;20290;-60
2023/08/15 10:58:49;;;;;;;;;;;21.10;99.90;;;;;;5000864;28;19922;-60
2023/08/15 11:01:19;;;;;;;;;;;21.20;99.90;;;;;;5004436;28;19979;-61
2023/08/15 11:03:46;;;;;;;;;;;21.40;99.90;;;;;;5000060;28;19925;-59
2023/08/15 11:06:13;;;;;;;;;;;21.50;99.90;;;;;;5003146;28;19976;-60
2023/08/15 11:08:41;;;;;;;;;;;21.70;99.90;;;;;;4995782;28;19926;-60
2023/08/15 11:11:09;;;;;;;;;;;21.50;99.90;;;;;;5002840;28;20399;-60
2023/08/15 11:13:39;;;;;;;;;;;21.50;99.90;;;;;;4997228;28;20258;-59
2023/08/15 11:16:06;;;;;;;;;;;21.30;99.90;;;;;;4976928;28;20226;-59
2023/08/15 11:18:36;;;;;;;;;;;21.20;99.90;;;;;;4992374;28;19922;-59
2023/08/15 11:21:03;;;;;;;;;;;21.10;99.90;;;;;;5002900;28;19925;-59
2023/08/15 11:23:31;;;;;;;;;;;21.30;99.90;;;;;;4992004;28;20210;-59
2023/08/15 11:26:05;;;;;;;;;;;21.40;99.90;;;;;;4985193;28;20007;-58
2023/08/15 11:28:32;;;;;;;;;;;21.60;99.90;;;;;;4985077;28;19980;-59
2023/08/15 11:30:59;;;;;;;;;;;21.70;99.90;;;;;;4986074;28;20032;-59
2023/08/15 11:33:42;;;;;;;;;;;21.70;99.90;;;;;;4985771;28;19932;-60
2023/08/15 11:36:11;;;;;;;;;;;21.60;99.90;;;;;;4986165;28;20340;-60
2023/08/15 11:38:38;;;;;;;;;;;21.50;99.90;;;;;;4985727;28;19929;-60
2023/08/15 11:41:05;;;;;;;;;;;21.50;99.90;;;;;;4985917;28;19933;-59
2023/08/15 11:43:32;;;;;;;;;;;21.50;99.90;;;;;;4985757;28;19995;-59
2023/08/15 11:46:02;;;;;;;;;;;21.50;99.90;;;;;;4985487;28;20278;-59
2023/08/15 11:48:30;;;;;;;;;;;21.40;99.90;;;;;;4985290;28;20207;-59
2023/08/15 11:50:57;;;;;;;;;;;21.40;99.90;;;;;;4986144;28;19926;-58
2023/08/15 11:53:24;;;;;;;;;;;21.50;99.90;;;;;;4985920;28;19929;-59
2023/08/15 11:55:51;;;;;;;;;;;21.70;99.90;;;;;;4985872;28;19925;-59
2023/08/15 11:58:25;;;;;;;;;;;22.00;99.90;;;;;;4984516;28;19961;-58
2023/08/15 12:00:53;;;;;;;;;;;22.10;99.90;;;;;;4982676;28;20396;-59
2023/08/15 12:03:20;;;;;;;;;;;22.30;99.90;;;;;;4986014;28;20408;-59
2023/08/15 12:05:47;;;;;;;;;;;22.20;99.90;;;;;;4986254;28;19932;-60
2023/08/15 12:08:15;;;;;;;;;;;22.20;99.90;;;;;;4987349;28;19976;-60
2023/08/15 12:10:42;;;;;;;;;;;22.30;99.90;;;;;;4967111;28;20010;-58
2023/08/15 12:13:09;;;;;;;;;;;22.10;99.90;;;;;;4985849;28;19926;-59
2023/08/15 12:15:36;;;;;;;;;;;22.10;99.90;;;;;;4985734;28;20041;-56
2023/08/15 12:18:03;;;;;;;;;;;22.10;99.90;;;;;;4988212;28;19968;-58
2023/08/15 12:20:30;;;;;;;;;;;22.10;99.90;;;;;;4987147;28;19972;-59
2023/08/15 12:22:57;;;;;;;;;;;22.10;99.90;;;;;;4988522;28;19925;-58
2023/08/15 12:25:24;;;;;;;;;;;22.30;99.90;;;;;;4987805;28;19921;-60
2023/08/15 12:27:51;;;;;;;;;;;22.50;99.90;;;;;;4988437;28;19937;-59
2023/08/15 12:30:20;;;;;;;;;;;22.70;99.90;;;;;;4988486;28;20368;-59
2023/08/15 12:32:47;;;;;;;;;;;22.90;99.90;;;;;;4987088;28;19963;-61
2023/08/15 12:35:13;;;;;;;;;;;22.90;99.90;;;;;;4987118;28;20021;-60
2023/08/15 12:37:40;;;;;;;;;;;22.70;99.90;;;;;;4986860;28;19921;-60
2023/08/15 12:40:07;;;;;;;;;;;22.60;99.90;;;;;;4987368;28;20798;-59
2023/08/15 12:42:47;;;;;;;;;;;22.60;99.90;;;;;;4990439;28;19925;-59
2023/08/15 12:45:14;;;;;;;;;;;22.80;99.90;;;;;;4990420;28;19926;-59
2023/08/15 12:47:40;;;;;;;;;;;22.90;99.90;;;;;;4990379;28;20377;-58
2023/08/15 12:50:07;;;;;;;;;;;23.00;99.90;;;;;;4991119;28;19932;-59
2023/08/15 12:52:37;;;;;;;;;;;23.10;99.90;;;;;;4980505;28;20321;-59
2023/08/15 12:55:04;;;;;;;;;;;23.20;99.90;;;;;;4992157;28;19932;-59
2023/08/15 12:57:33;;;;;;;;;;;23.40;99.90;;;;;;4992424;28;19980;-59
2023/08/15 12:59:59;;;;;;;;;;;23.40;99.90;;;;;;4992700;28;20614;-59
2023/08/15 13:02:28;;;;;;;;;;;23.50;99.90;;;;;;4991799;28;19922;-59
2023/08/15 13:04:54;;;;;;;;;;;23.70;99.90;;;;;;4992340;28;20396;-58
2023/08/15 13:07:21;;;;;;;;;;;23.80;99.90;;;;;;4991579;28;20037;-59
2023/08/15 13:09:48;;;;;;;;;;;23.70;99.90;;;;;;4992373;28;20105;-59
2023/08/15 13:12:15;;;;;;;;;;;23.60;99.90;;;;;;4991679;28;19957;-59
2023/08/15 13:14:44;;;;;;;;;;;23.70;99.90;;;;;;4991752;28;19922;-58
2023/08/15 13:17:11;;;;;;;;;;;23.70;99.90;;;;;;4991299;28;20304;-58
2023/08/15 13:19:38;;;;;;;;;;;23.70;99.90;;;;;;4991739;28;20144;-60
2023/08/15 13:22:04;;;;;;;;;;;23.60;99.90;;;;;;4991654;28;19984;-59
2023/08/15 13:24:31;;;;;;;;;;;23.70;99.90;;;;;;4991759;28;19984;-59
2023/08/15 13:26:58;;;;;;;;;;;23.70;99.90;;;;;;4991496;28;20122;-59
2023/08/15 13:29:24;;;;;;;;;;;23.80;99.90;;;;;;4992025;28;19923;-60
2023/08/15 13:31:51;;;;;;;;;;;24.00;99.90;;;;;;4991769;28;19921;-60
2023/08/15 13:34:20;;;;;;;;;;;24.20;99.90;;;;;;4991601;28;19922;-59
2023/08/15 13:36:46;;;;;;;;;;;24.30;99.50;;;;;;4991416;28;20827;-59
2023/08/15 13:39:16;;;;;;;;;;;24.10;99.00;;;;;;4991060;28;20365;-59
2023/08/15 13:41:42;;;;;;;;;;;24.10;99.40;;;;;;4991376;28;19929;-59
2023/08/15 13:44:10;;;;;;;;;;;24.20;99.90;;;;;;4991655;28;20024;-59
2023/08/15 13:46:37;;;;;;;;;;;24.10;99.90;;;;;;4989986;28;19926;-59
2023/08/15 13:49:04;;;;;;;;;;;24.00;99.90;;;;;;4990277;28;19964;-58
2023/08/15 13:51:31;;;;;;;;;;;23.90;99.90;;;;;;4991459;28;19922;-58
2023/08/15 13:53:58;;;;;;;;;;;23.90;99.90;;;;;;4989479;28;19933;-59
2023/08/15 13:56:27;;;;;;;;;;;23.90;99.90;;;;;;4991332;28;19922;-60
2023/08/15 13:58:54;;;;;;;;;;;23.80;99.40;;;;;;4990679;28;20016;-60
2023/08/15 14:01:21;;;;;;;;;;;23.80;99.90;;;;;;4991261;28;19922;-60
2023/08/15 14:03:47;;;;;;;;;;;23.90;99.80;;;;;;4990636;28;20431;-60
2023/08/15 14:06:14;;;;;;;;;;;23.90;99.60;;;;;;4989672;28;19922;-62
2023/08/15 14:08:41;;;;;;;;;;;24.20;99.90;;;;;;4643181;28;10000184;-60
2023/08/15 14:11:08;;;;;;;;;;;24.50;99.50;;;;;;4991008;28;19921;-60
2023/08/15 14:13:34;;;;;;;;;;;24.40;99.70;;;;;;4990593;28;20272;-60
2023/08/15 14:16:01;;;;;;;;;;;24.80;99.80;;;;;;4976052;28;19970;-60
2023/08/15 14:18:28;;;;;;;;;;;25.00;97.30;;;;;;4971330;28;21482;-60